sensor_id;sensor_type;location;lat;lon;timestamp;temperature;humidity
12901;DHT22;6518;50.930;5.344;2022-07-03T00:02:25;22.20;56.00
12901;DHT22;6518;50.930;5.344;2022-07-03T00:04:52;22.20;56.10
12901;DHT22;6518;50.930;5.344;2022-07-03T00:07:20;22.20;56.10
12901;DHT22;6518;50.930;5.344;2022-07-03T00:09:48;22.10;56.20
12901;DHT22;6518;50.930;5.344;2022-07-03T00:12:15;22.10;56.20
12901;DHT22;6518;50.930;5.344;2022-07-03T00:14:42;22.10;56.30
12901;DHT22;6518;50.930;5.344;2022-07-03T00:17:09;22.10;56.40
12901;DHT22;6518;50.930;5.344;2022-07-03T00:19:36;22.00;56.40
12901;DHT22;6518;50.930;5.344;2022-07-03T00:22:04;22.00;56.40
12901;DHT22;6518;50.930;5.344;2022-07-03T00:24:39;22.00;56.50
12901;DHT22;6518;50.930;5.344;2022-07-03T00:27:08;21.90;56.50
12901;DHT22;6518;50.930;5.344;2022-07-03T00:29:37;21.90;56.50
12901;DHT22;6518;50.930;5.344;2022-07-03T00:32:07;21.80;56.40
12901;DHT22;6518;50.930;5.344;2022-07-03T00:34:35;21.70;56.50
12901;DHT22;6518;50.930;5.344;2022-07-03T00:37:02;21.60;56.60
12901;DHT22;6518;50.930;5.344;2022-07-03T00:39:35;21.50;56.70
12901;DHT22;6518;50.930;5.344;2022-07-03T00:42:04;21.50;56.90
12901;DHT22;6518;50.930;5.344;2022-07-03T00:44:34;21.40;56.90
12901;DHT22;6518;50.930;5.344;2022-07-03T00:47:04;21.40;57.00
12901;DHT22;6518;50.930;5.344;2022-07-03T00:49:33;21.40;57.10
12901;DHT22;6518;50.930;5.344;2022-07-03T00:52:04;21.40;57.40
12901;DHT22;6518;50.930;5.344;2022-07-03T00:54:34;21.40;57.30
12901;DHT22;6518;50.930;5.344;2022-07-03T00:57:02;21.30;57.20
12901;DHT22;6518;50.930;5.344;2022-07-03T00:59:29;20.90;57.50
12901;DHT22;6518;50.930;5.344;2022-07-03T01:02:02;20.80;57.90
12901;DHT22;6518;50.930;5.344;2022-07-03T01:04:36;20.70;58.30
12901;DHT22;6518;50.930;5.344;2022-07-03T01:07:07;20.60;58.40
12901;DHT22;6518;50.930;5.344;2022-07-03T01:09:52;20.50;58.70
12901;DHT22;6518;50.930;5.344;2022-07-03T01:12:30;20.40;59.00
12901;DHT22;6518;50.930;5.344;2022-07-03T01:15:07;20.40;59.10
12901;DHT22;6518;50.930;5.344;2022-07-03T01:17:39;20.20;59.40
12901;DHT22;6518;50.930;5.344;2022-07-03T01:20:07;20.00;59.70
12901;DHT22;6518;50.930;5.344;2022-07-03T01:22:35;19.90;60.30
12901;DHT22;6518;50.930;5.344;2022-07-03T01:25:15;19.80;60.40
12901;DHT22;6518;50.930;5.344;2022-07-03T01:30:37;19.70;61.30
12901;DHT22;6518;50.930;5.344;2022-07-03T01:33:07;19.50;61.70
12901;DHT22;6518;50.930;5.344;2022-07-03T01:35:36;19.30;61.90
12901;DHT22;6518;50.930;5.344;2022-07-03T01:38:06;19.20;62.70
12901;DHT22;6518;50.930;5.344;2022-07-03T01:40:35;19.00;63.50
12901;DHT22;6518;50.930;5.344;2022-07-03T01:43:06;18.90;63.60
12901;DHT22;6518;50.930;5.344;2022-07-03T01:45:38;19.00;64.00
12901;DHT22;6518;50.930;5.344;2022-07-03T01:48:08;19.10;64.10
12901;DHT22;6518;50.930;5.344;2022-07-03T01:50:37;19.20;63.80
12901;DHT22;6518;50.930;5.344;2022-07-03T01:53:07;19.20;63.80
12901;DHT22;6518;50.930;5.344;2022-07-03T01:55:37;19.20;63.60
12901;DHT22;6518;50.930;5.344;2022-07-03T01:58:06;19.20;63.70
12901;DHT22;6518;50.930;5.344;2022-07-03T02:00:40;19.20;63.80
12901;DHT22;6518;50.930;5.344;2022-07-03T02:03:08;19.20;64.90
12901;DHT22;6518;50.930;5.344;2022-07-03T02:05:38;19.30;63.80
12901;DHT22;6518;50.930;5.344;2022-07-03T02:08:43;19.30;63.60
12901;DHT22;6518;50.930;5.344;2022-07-03T02:11:14;19.20;63.40
12901;DHT22;6518;50.930;5.344;2022-07-03T02:14:01;19.20;63.60
12901;DHT22;6518;50.930;5.344;2022-07-03T02:16:50;19.20;63.70
12901;DHT22;6518;50.930;5.344;2022-07-03T02:19:18;19.20;63.70
12901;DHT22;6518;50.930;5.344;2022-07-03T02:21:48;19.10;63.60
12901;DHT22;6518;50.930;5.344;2022-07-03T02:24:20;19.10;63.80
12901;DHT22;6518;50.930;5.344;2022-07-03T02:26:53;19.10;63.70
12901;DHT22;6518;50.930;5.344;2022-07-03T02:29:30;19.10;63.70
12901;DHT22;6518;50.930;5.344;2022-07-03T02:32:00;19.20;64.30
12901;DHT22;6518;50.930;5.344;2022-07-03T02:34:30;19.20;63.20
12901;DHT22;6518;50.930;5.344;2022-07-03T02:37:05;19.10;62.90
12901;DHT22;6518;50.930;5.344;2022-07-03T02:39:41;19.00;63.00
12901;DHT22;6518;50.930;5.344;2022-07-03T02:42:18;19.00;63.30
12901;DHT22;6518;50.930;5.344;2022-07-03T02:44:50;18.90;63.40
12901;DHT22;6518;50.930;5.344;2022-07-03T02:47:23;18.80;63.50
12901;DHT22;6518;50.930;5.344;2022-07-03T02:49:58;18.80;63.90
12901;DHT22;6518;50.930;5.344;2022-07-03T02:52:33;18.90;63.90
12901;DHT22;6518;50.930;5.344;2022-07-03T02:55:06;19.00;63.80
12901;DHT22;6518;50.930;5.344;2022-07-03T02:57:38;19.10;63.80
12901;DHT22;6518;50.930;5.344;2022-07-03T03:00:08;19.20;63.80
12901;DHT22;6518;50.930;5.344;2022-07-03T03:02:52;19.20;63.60
12901;DHT22;6518;50.930;5.344;2022-07-03T03:05:34;19.30;63.80
12901;DHT22;6518;50.930;5.344;2022-07-03T03:08:08;19.30;63.60
12901;DHT22;6518;50.930;5.344;2022-07-03T03:10:38;19.30;63.40
12901;DHT22;6518;50.930;5.344;2022-07-03T03:13:08;19.20;63.40
12901;DHT22;6518;50.930;5.344;2022-07-03T03:15:38;19.20;63.70
12901;DHT22;6518;50.930;5.344;2022-07-03T03:18:07;19.30;63.70
12901;DHT22;6518;50.930;5.344;2022-07-03T03:20:35;19.30;63.70
12901;DHT22;6518;50.930;5.344;2022-07-03T03:23:12;19.30;63.70
12901;DHT22;6518;50.930;5.344;2022-07-03T03:25:43;19.30;63.90
12901;DHT22;6518;50.930;5.344;2022-07-03T03:28:10;19.30;63.80
12901;DHT22;6518;50.930;5.344;2022-07-03T03:30:39;19.30;63.70
12901;DHT22;6518;50.930;5.344;2022-07-03T03:33:06;19.30;63.70
12901;DHT22;6518;50.930;5.344;2022-07-03T03:35:35;19.30;63.70
12901;DHT22;6518;50.930;5.344;2022-07-03T03:38:02;19.20;63.60
12901;DHT22;6518;50.930;5.344;2022-07-03T03:40:30;19.20;63.50
12901;DHT22;6518;50.930;5.344;2022-07-03T03:42:57;19.20;63.70
12901;DHT22;6518;50.930;5.344;2022-07-03T03:45:25;19.20;63.90
12901;DHT22;6518;50.930;5.344;2022-07-03T03:47:53;19.20;63.90
12901;DHT22;6518;50.930;5.344;2022-07-03T03:50:20;19.30;64.80
12901;DHT22;6518;50.930;5.344;2022-07-03T03:52:49;19.30;63.90
12901;DHT22;6518;50.930;5.344;2022-07-03T03:55:16;19.30;63.90
12901;DHT22;6518;50.930;5.344;2022-07-03T03:57:43;19.30;63.90
12901;DHT22;6518;50.930;5.344;2022-07-03T04:00:11;19.30;64.70
12901;DHT22;6518;50.930;5.344;2022-07-03T04:02:38;19.30;63.80
12901;DHT22;6518;50.930;5.344;2022-07-03T04:05:07;19.40;64.00
12901;DHT22;6518;50.930;5.344;2022-07-03T04:07:34;19.30;63.90
12901;DHT22;6518;50.930;5.344;2022-07-03T04:10:02;19.30;64.00
12901;DHT22;6518;50.930;5.344;2022-07-03T04:12:29;19.30;64.00
12901;DHT22;6518;50.930;5.344;2022-07-03T04:14:57;19.30;63.90
12901;DHT22;6518;50.930;5.344;2022-07-03T04:17:24;19.30;64.10
12901;DHT22;6518;50.930;5.344;2022-07-03T04:19:53;19.40;64.00
12901;DHT22;6518;50.930;5.344;2022-07-03T04:22:21;19.40;64.10
12901;DHT22;6518;50.930;5.344;2022-07-03T04:24:48;19.40;63.90
12901;DHT22;6518;50.930;5.344;2022-07-03T04:27:14;19.40;63.90
12901;DHT22;6518;50.930;5.344;2022-07-03T04:29:41;19.30;63.80
12901;DHT22;6518;50.930;5.344;2022-07-03T04:32:08;19.30;64.20
12901;DHT22;6518;50.930;5.344;2022-07-03T04:34:36;19.30;64.20
12901;DHT22;6518;50.930;5.344;2022-07-03T04:37:03;19.40;64.30
12901;DHT22;6518;50.930;5.344;2022-07-03T04:39:31;19.40;63.90
12901;DHT22;6518;50.930;5.344;2022-07-03T04:41:58;19.40;63.80
12901;DHT22;6518;50.930;5.344;2022-07-03T04:44:25;19.30;63.80
12901;DHT22;6518;50.930;5.344;2022-07-03T04:46:53;19.30;63.80
12901;DHT22;6518;50.930;5.344;2022-07-03T04:49:20;19.20;63.70
12901;DHT22;6518;50.930;5.344;2022-07-03T04:51:46;19.10;63.50
12901;DHT22;6518;50.930;5.344;2022-07-03T04:54:13;19.10;63.70
12901;DHT22;6518;50.930;5.344;2022-07-03T04:56:41;19.00;63.70
12901;DHT22;6518;50.930;5.344;2022-07-03T04:59:08;19.00;63.80
12901;DHT22;6518;50.930;5.344;2022-07-03T05:01:35;19.00;63.70
12901;DHT22;6518;50.930;5.344;2022-07-03T05:04:03;19.00;63.70
12901;DHT22;6518;50.930;5.344;2022-07-03T05:06:30;19.00;63.60
12901;DHT22;6518;50.930;5.344;2022-07-03T05:08:57;19.00;63.60
12901;DHT22;6518;50.930;5.344;2022-07-03T05:11:24;19.00;63.50
12901;DHT22;6518;50.930;5.344;2022-07-03T05:13:52;18.90;63.30
12901;DHT22;6518;50.930;5.344;2022-07-03T05:16:19;18.90;63.70
12901;DHT22;6518;50.930;5.344;2022-07-03T05:18:46;18.90;63.40
12901;DHT22;6518;50.930;5.344;2022-07-03T05:21:13;18.90;63.60
12901;DHT22;6518;50.930;5.344;2022-07-03T05:23:39;18.90;63.30
12901;DHT22;6518;50.930;5.344;2022-07-03T05:26:06;19.00;63.40
12901;DHT22;6518;50.930;5.344;2022-07-03T05:28:33;19.10;63.30
12901;DHT22;6518;50.930;5.344;2022-07-03T05:31:01;19.20;63.20
12901;DHT22;6518;50.930;5.344;2022-07-03T05:33:28;19.20;62.40
12901;DHT22;6518;50.930;5.344;2022-07-03T05:35:55;19.20;62.40
12901;DHT22;6518;50.930;5.344;2022-07-03T05:38:22;19.20;62.60
12901;DHT22;6518;50.930;5.344;2022-07-03T05:41:03;19.30;62.60
12901;DHT22;6518;50.930;5.344;2022-07-03T05:43:30;19.30;62.50
12901;DHT22;6518;50.930;5.344;2022-07-03T05:45:57;19.40;62.30
12901;DHT22;6518;50.930;5.344;2022-07-03T05:48:26;19.40;62.30
12901;DHT22;6518;50.930;5.344;2022-07-03T05:50:53;19.40;63.40
12901;DHT22;6518;50.930;5.344;2022-07-03T05:53:20;19.40;62.70
12901;DHT22;6518;50.930;5.344;2022-07-03T05:55:47;19.40;62.40
12901;DHT22;6518;50.930;5.344;2022-07-03T05:58:14;19.40;62.40
12901;DHT22;6518;50.930;5.344;2022-07-03T06:00:42;19.40;62.40
12901;DHT22;6518;50.930;5.344;2022-07-03T06:03:09;19.40;62.50
12901;DHT22;6518;50.930;5.344;2022-07-03T06:05:38;19.50;62.60
12901;DHT22;6518;50.930;5.344;2022-07-03T06:08:05;19.50;62.90
12901;DHT22;6518;50.930;5.344;2022-07-03T06:10:33;19.60;62.80
12901;DHT22;6518;50.930;5.344;2022-07-03T06:12:59;19.70;62.40
12901;DHT22;6518;50.930;5.344;2022-07-03T06:15:27;19.70;62.20
12901;DHT22;6518;50.930;5.344;2022-07-03T06:17:54;19.70;62.00
12901;DHT22;6518;50.930;5.344;2022-07-03T06:20:21;19.80;62.10
12901;DHT22;6518;50.930;5.344;2022-07-03T06:22:49;19.80;61.80
12901;DHT22;6518;50.930;5.344;2022-07-03T06:25:16;19.70;61.20
12901;DHT22;6518;50.930;5.344;2022-07-03T06:27:43;19.60;61.60
12901;DHT22;6518;50.930;5.344;2022-07-03T06:30:11;19.70;62.00
12901;DHT22;6518;50.930;5.344;2022-07-03T06:32:38;19.80;61.90
12901;DHT22;6518;50.930;5.344;2022-07-03T06:35:05;19.90;61.60
12901;DHT22;6518;50.930;5.344;2022-07-03T06:37:32;19.90;61.20
12901;DHT22;6518;50.930;5.344;2022-07-03T06:40:00;19.80;61.00
12901;DHT22;6518;50.930;5.344;2022-07-03T06:42:27;19.80;61.70
12901;DHT22;6518;50.930;5.344;2022-07-03T06:44:54;19.80;61.70
12901;DHT22;6518;50.930;5.344;2022-07-03T06:47:21;19.80;61.70
12901;DHT22;6518;50.930;5.344;2022-07-03T06:49:48;19.70;61.40
12901;DHT22;6518;50.930;5.344;2022-07-03T06:52:15;19.60;61.60
12901;DHT22;6518;50.930;5.344;2022-07-03T06:54:42;19.60;61.70
12901;DHT22;6518;50.930;5.344;2022-07-03T06:57:11;19.70;61.80
12901;DHT22;6518;50.930;5.344;2022-07-03T06:59:38;19.70;62.00
12901;DHT22;6518;50.930;5.344;2022-07-03T07:02:05;19.80;62.00
12901;DHT22;6518;50.930;5.344;2022-07-03T07:04:33;19.90;61.90
12901;DHT22;6518;50.930;5.344;2022-07-03T07:07:00;20.00;62.10
12901;DHT22;6518;50.930;5.344;2022-07-03T07:09:27;20.10;62.00
12901;DHT22;6518;50.930;5.344;2022-07-03T07:11:54;20.10;61.70
12901;DHT22;6518;50.930;5.344;2022-07-03T07:14:22;20.10;61.50
12901;DHT22;6518;50.930;5.344;2022-07-03T07:16:49;20.10;61.70
12901;DHT22;6518;50.930;5.344;2022-07-03T07:19:16;20.10;62.20
12901;DHT22;6518;50.930;5.344;2022-07-03T07:21:43;20.10;61.60
12901;DHT22;6518;50.930;5.344;2022-07-03T07:24:11;20.10;61.90
12901;DHT22;6518;50.930;5.344;2022-07-03T07:26:38;20.20;61.90
12901;DHT22;6518;50.930;5.344;2022-07-03T07:29:05;20.20;61.70
12901;DHT22;6518;50.930;5.344;2022-07-03T07:31:33;20.20;61.70
12901;DHT22;6518;50.930;5.344;2022-07-03T07:34:00;20.20;61.80
12901;DHT22;6518;50.930;5.344;2022-07-03T07:36:29;20.20;61.90
12901;DHT22;6518;50.930;5.344;2022-07-03T07:38:56;20.30;62.10
12901;DHT22;6518;50.930;5.344;2022-07-03T07:41:23;20.30;61.90
12901;DHT22;6518;50.930;5.344;2022-07-03T07:43:50;20.40;62.10
12901;DHT22;6518;50.930;5.344;2022-07-03T07:46:17;20.50;62.10
12901;DHT22;6518;50.930;5.344;2022-07-03T07:48:45;20.60;61.80
12901;DHT22;6518;50.930;5.344;2022-07-03T07:51:12;20.70;61.80
12901;DHT22;6518;50.930;5.344;2022-07-03T07:53:39;20.80;61.70
12901;DHT22;6518;50.930;5.344;2022-07-03T07:56:06;20.90;61.50
12901;DHT22;6518;50.930;5.344;2022-07-03T07:58:32;20.90;61.40
12901;DHT22;6518;50.930;5.344;2022-07-03T08:00:59;21.00;61.40
12901;DHT22;6518;50.930;5.344;2022-07-03T08:03:45;21.00;61.30
12901;DHT22;6518;50.930;5.344;2022-07-03T08:06:29;21.10;61.10
12901;DHT22;6518;50.930;5.344;2022-07-03T08:08:56;21.10;60.90
12901;DHT22;6518;50.930;5.344;2022-07-03T08:11:23;21.20;61.00
12901;DHT22;6518;50.930;5.344;2022-07-03T08:13:50;21.20;61.00
12901;DHT22;6518;50.930;5.344;2022-07-03T08:16:17;21.20;60.60
12901;DHT22;6518;50.930;5.344;2022-07-03T08:18:45;21.20;60.20
12901;DHT22;6518;50.930;5.344;2022-07-03T08:21:12;21.10;60.10
12901;DHT22;6518;50.930;5.344;2022-07-03T08:23:39;21.10;60.30
12901;DHT22;6518;50.930;5.344;2022-07-03T08:26:06;21.10;60.60
12901;DHT22;6518;50.930;5.344;2022-07-03T08:28:32;21.20;60.90
12901;DHT22;6518;50.930;5.344;2022-07-03T08:30:59;21.20;60.70
12901;DHT22;6518;50.930;5.344;2022-07-03T08:33:27;21.30;60.60
12901;DHT22;6518;50.930;5.344;2022-07-03T08:35:55;21.30;60.20
12901;DHT22;6518;50.930;5.344;2022-07-03T08:38:27;21.30;60.00
12901;DHT22;6518;50.930;5.344;2022-07-03T08:40:57;21.20;60.00
12901;DHT22;6518;50.930;5.344;2022-07-03T08:43:25;21.30;60.00
12901;DHT22;6518;50.930;5.344;2022-07-03T08:45:52;21.20;60.00
12901;DHT22;6518;50.930;5.344;2022-07-03T08:48:21;21.30;61.00
12901;DHT22;6518;50.930;5.344;2022-07-03T08:50:50;21.30;60.20
12901;DHT22;6518;50.930;5.344;2022-07-03T08:53:19;21.40;59.90
12901;DHT22;6518;50.930;5.344;2022-07-03T08:55:48;21.50;59.80
12901;DHT22;6518;50.930;5.344;2022-07-03T08:58:15;21.60;60.50
12901;DHT22;6518;50.930;5.344;2022-07-03T09:00:45;21.60;59.70
12901;DHT22;6518;50.930;5.344;2022-07-03T09:03:12;21.70;59.60
12901;DHT22;6518;50.930;5.344;2022-07-03T09:05:40;21.80;59.60
12901;DHT22;6518;50.930;5.344;2022-07-03T09:08:09;21.80;59.20
12901;DHT22;6518;50.930;5.344;2022-07-03T09:10:37;21.80;59.20
12901;DHT22;6518;50.930;5.344;2022-07-03T09:13:04;21.80;59.20
12901;DHT22;6518;50.930;5.344;2022-07-03T09:15:31;21.90;59.30
12901;DHT22;6518;50.930;5.344;2022-07-03T09:18:00;21.90;59.10
12901;DHT22;6518;50.930;5.344;2022-07-03T09:20:29;21.90;58.90
12901;DHT22;6518;50.930;5.344;2022-07-03T09:23:08;22.00;58.90
12901;DHT22;6518;50.930;5.344;2022-07-03T09:25:50;22.10;58.90
12901;DHT22;6518;50.930;5.344;2022-07-03T09:28:18;22.10;58.10
12901;DHT22;6518;50.930;5.344;2022-07-03T09:30:56;22.10;58.30
12901;DHT22;6518;50.930;5.344;2022-07-03T09:33:23;22.10;58.20
12901;DHT22;6518;50.930;5.344;2022-07-03T09:35:53;22.10;58.30
12901;DHT22;6518;50.930;5.344;2022-07-03T09:38:21;22.20;58.30
12901;DHT22;6518;50.930;5.344;2022-07-03T09:40:50;22.30;58.00
12901;DHT22;6518;50.930;5.344;2022-07-03T09:43:23;22.30;57.80
12901;DHT22;6518;50.930;5.344;2022-07-03T09:45:53;22.40;57.80
12901;DHT22;6518;50.930;5.344;2022-07-03T09:48:21;22.50;57.80
12901;DHT22;6518;50.930;5.344;2022-07-03T09:50:49;22.60;57.70
12901;DHT22;6518;50.930;5.344;2022-07-03T09:53:16;22.70;57.70
12901;DHT22;6518;50.930;5.344;2022-07-03T09:55:57;22.70;57.30
12901;DHT22;6518;50.930;5.344;2022-07-03T09:58:24;22.70;56.30
12901;DHT22;6518;50.930;5.344;2022-07-03T10:00:51;22.60;56.40
12901;DHT22;6518;50.930;5.344;2022-07-03T10:03:20;22.60;56.60
12901;DHT22;6518;50.930;5.344;2022-07-03T10:05:47;22.70;56.40
12901;DHT22;6518;50.930;5.344;2022-07-03T10:08:15;22.80;56.30
12901;DHT22;6518;50.930;5.344;2022-07-03T10:10:45;22.80;56.20
12901;DHT22;6518;50.930;5.344;2022-07-03T10:13:15;22.80;55.70
12901;DHT22;6518;50.930;5.344;2022-07-03T10:15:42;22.70;55.70
12901;DHT22;6518;50.930;5.344;2022-07-03T10:18:10;22.70;56.60
12901;DHT22;6518;50.930;5.344;2022-07-03T10:20:39;22.70;56.00
12901;DHT22;6518;50.930;5.344;2022-07-03T10:23:07;22.70;55.60
12901;DHT22;6518;50.930;5.344;2022-07-03T10:25:35;22.80;55.80
12901;DHT22;6518;50.930;5.344;2022-07-03T10:28:02;22.90;56.10
12901;DHT22;6518;50.930;5.344;2022-07-03T10:30:31;23.10;56.00
12901;DHT22;6518;50.930;5.344;2022-07-03T10:32:59;23.20;55.70
12901;DHT22;6518;50.930;5.344;2022-07-03T10:35:29;23.30;55.40
12901;DHT22;6518;50.930;5.344;2022-07-03T10:38:12;23.40;55.50
12901;DHT22;6518;50.930;5.344;2022-07-03T10:40:43;23.50;54.60
12901;DHT22;6518;50.930;5.344;2022-07-03T10:43:36;23.40;54.50
12901;DHT22;6518;50.930;5.344;2022-07-03T10:46:24;23.50;54.80
12901;DHT22;6518;50.930;5.344;2022-07-03T10:49:03;23.60;54.60
12901;DHT22;6518;50.930;5.344;2022-07-03T10:54:19;23.60;53.80
12901;DHT22;6518;50.930;5.344;2022-07-03T10:57:05;23.50;54.00
12901;DHT22;6518;50.930;5.344;2022-07-03T11:00:08;23.50;54.20
12901;DHT22;6518;50.930;5.344;2022-07-03T11:02:38;23.50;54.20
12901;DHT22;6518;50.930;5.344;2022-07-03T11:05:16;23.50;54.00
12901;DHT22;6518;50.930;5.344;2022-07-03T11:08:04;23.50;54.40
12901;DHT22;6518;50.930;5.344;2022-07-03T11:10:33;23.50;54.20
12901;DHT22;6518;50.930;5.344;2022-07-03T11:13:03;23.60;53.90
12901;DHT22;6518;50.930;5.344;2022-07-03T11:15:31;23.70;53.80
12901;DHT22;6518;50.930;5.344;2022-07-03T11:18:31;23.70;53.80
12901;DHT22;6518;50.930;5.344;2022-07-03T11:21:20;23.80;53.80
12901;DHT22;6518;50.930;5.344;2022-07-03T11:24:30;23.90;54.00
12901;DHT22;6518;50.930;5.344;2022-07-03T11:27:21;24.00;53.70
12901;DHT22;6518;50.930;5.344;2022-07-03T11:29:55;24.10;53.30
12901;DHT22;6518;50.930;5.344;2022-07-03T11:32:51;24.10;52.90
12901;DHT22;6518;50.930;5.344;2022-07-03T11:35:45;24.00;52.70
12901;DHT22;6518;50.930;5.344;2022-07-03T11:38:20;24.10;53.00
12901;DHT22;6518;50.930;5.344;2022-07-03T11:40:50;24.10;53.00
12901;DHT22;6518;50.930;5.344;2022-07-03T11:43:17;24.20;52.60
12901;DHT22;6518;50.930;5.344;2022-07-03T11:45:46;24.10;51.70
12901;DHT22;6518;50.930;5.344;2022-07-03T11:48:14;24.00;52.10
12901;DHT22;6518;50.930;5.344;2022-07-03T11:50:43;24.00;52.40
12901;DHT22;6518;50.930;5.344;2022-07-03T11:53:23;24.10;52.50
12901;DHT22;6518;50.930;5.344;2022-07-03T11:55:52;24.10;52.60
12901;DHT22;6518;50.930;5.344;2022-07-03T11:58:20;24.30;52.50
12901;DHT22;6518;50.930;5.344;2022-07-03T12:00:47;24.30;52.30
12901;DHT22;6518;50.930;5.344;2022-07-03T12:03:20;24.20;52.40
12901;DHT22;6518;50.930;5.344;2022-07-03T12:05:56;24.10;52.40
12901;DHT22;6518;50.930;5.344;2022-07-03T12:08:26;24.20;52.30
12901;DHT22;6518;50.930;5.344;2022-07-03T12:10:58;24.20;52.20
12901;DHT22;6518;50.930;5.344;2022-07-03T12:13:26;24.20;51.80
12901;DHT22;6518;50.930;5.344;2022-07-03T12:16:01;24.30;52.00
12901;DHT22;6518;50.930;5.344;2022-07-03T12:18:44;24.40;51.90
12901;DHT22;6518;50.930;5.344;2022-07-03T12:21:12;24.50;51.40
12901;DHT22;6518;50.930;5.344;2022-07-03T12:23:46;24.60;51.30
12901;DHT22;6518;50.930;5.344;2022-07-03T12:26:14;24.60;51.20
12901;DHT22;6518;50.930;5.344;2022-07-03T12:28:41;24.60;51.20
12901;DHT22;6518;50.930;5.344;2022-07-03T12:31:08;24.70;51.20
12901;DHT22;6518;50.930;5.344;2022-07-03T12:33:35;24.70;51.00
12901;DHT22;6518;50.930;5.344;2022-07-03T12:36:07;24.70;51.00
12901;DHT22;6518;50.930;5.344;2022-07-03T12:38:36;24.60;50.40
12901;DHT22;6518;50.930;5.344;2022-07-03T12:41:06;24.50;50.50
12901;DHT22;6518;50.930;5.344;2022-07-03T12:43:37;24.50;50.90
12901;DHT22;6518;50.930;5.344;2022-07-03T12:46:15;24.60;51.10
12901;DHT22;6518;50.930;5.344;2022-07-03T12:48:47;24.60;51.00
12901;DHT22;6518;50.930;5.344;2022-07-03T12:51:15;24.60;51.20
12901;DHT22;6518;50.930;5.344;2022-07-03T12:53:42;24.50;51.10
12901;DHT22;6518;50.930;5.344;2022-07-03T12:56:11;24.40;51.30
12901;DHT22;6518;50.930;5.344;2022-07-03T12:58:39;24.30;51.30
12901;DHT22;6518;50.930;5.344;2022-07-03T13:01:28;24.30;51.60
12901;DHT22;6518;50.930;5.344;2022-07-03T13:03:55;24.30;51.40
12901;DHT22;6518;50.930;5.344;2022-07-03T13:06:24;24.30;52.10
12901;DHT22;6518;50.930;5.344;2022-07-03T13:08:53;24.20;51.70
12901;DHT22;6518;50.930;5.344;2022-07-03T13:11:30;24.20;51.90
12901;DHT22;6518;50.930;5.344;2022-07-03T13:14:07;24.20;51.90
12901;DHT22;6518;50.930;5.344;2022-07-03T13:16:52;24.20;51.70
12901;DHT22;6518;50.930;5.344;2022-07-03T13:19:20;24.10;51.70
12901;DHT22;6518;50.930;5.344;2022-07-03T13:21:48;24.10;51.70
12901;DHT22;6518;50.930;5.344;2022-07-03T13:24:17;24.10;51.30
12901;DHT22;6518;50.930;5.344;2022-07-03T13:26:47;24.00;51.10
12901;DHT22;6518;50.930;5.344;2022-07-03T13:29:15;24.00;51.10
12901;DHT22;6518;50.930;5.344;2022-07-03T13:31:42;24.00;51.10
12901;DHT22;6518;50.930;5.344;2022-07-03T13:34:09;24.00;50.80
12901;DHT22;6518;50.930;5.344;2022-07-03T13:36:36;24.10;50.80
12901;DHT22;6518;50.930;5.344;2022-07-03T13:39:03;24.10;50.40
12901;DHT22;6518;50.930;5.344;2022-07-03T13:41:30;24.10;50.20
12901;DHT22;6518;50.930;5.344;2022-07-03T13:43:59;24.10;50.10
12901;DHT22;6518;50.930;5.344;2022-07-03T13:46:26;24.00;49.90
12901;DHT22;6518;50.930;5.344;2022-07-03T13:48:53;24.10;50.00
12901;DHT22;6518;50.930;5.344;2022-07-03T13:51:20;24.20;49.60
12901;DHT22;6518;50.930;5.344;2022-07-03T13:53:47;24.20;49.40
12901;DHT22;6518;50.930;5.344;2022-07-03T13:56:15;24.20;49.70
12901;DHT22;6518;50.930;5.344;2022-07-03T13:58:42;24.20;49.60
12901;DHT22;6518;50.930;5.344;2022-07-03T14:01:10;24.30;49.60
12901;DHT22;6518;50.930;5.344;2022-07-03T14:03:37;24.20;49.50
12901;DHT22;6518;50.930;5.344;2022-07-03T14:06:04;24.20;49.10
12901;DHT22;6518;50.930;5.344;2022-07-03T14:08:31;24.10;48.60
12901;DHT22;6518;50.930;5.344;2022-07-03T14:10:58;24.10;48.60
12901;DHT22;6518;50.930;5.344;2022-07-03T14:13:25;24.20;49.00
12901;DHT22;6518;50.930;5.344;2022-07-03T14:15:52;24.30;49.20
12901;DHT22;6518;50.930;5.344;2022-07-03T14:18:21;24.40;49.00
12901;DHT22;6518;50.930;5.344;2022-07-03T14:20:48;24.40;48.70
12901;DHT22;6518;50.930;5.344;2022-07-03T14:23:15;24.40;48.50
12901;DHT22;6518;50.930;5.344;2022-07-03T14:25:42;24.40;48.60
12901;DHT22;6518;50.930;5.344;2022-07-03T14:28:09;24.60;48.80
12901;DHT22;6518;50.930;5.344;2022-07-03T14:30:53;24.70;48.40
12901;DHT22;6518;50.930;5.344;2022-07-03T14:33:39;24.70;47.60
12901;DHT22;6518;50.930;5.344;2022-07-03T14:36:06;24.50;47.70
12901;DHT22;6518;50.930;5.344;2022-07-03T14:38:33;24.40;48.00
12901;DHT22;6518;50.930;5.344;2022-07-03T14:41:00;24.40;48.20
12901;DHT22;6518;50.930;5.344;2022-07-03T14:43:27;24.40;48.40
12901;DHT22;6518;50.930;5.344;2022-07-03T14:45:54;24.50;48.00
12901;DHT22;6518;50.930;5.344;2022-07-03T14:48:21;24.60;47.90
12901;DHT22;6518;50.930;5.344;2022-07-03T14:50:50;24.60;47.60
12901;DHT22;6518;50.930;5.344;2022-07-03T14:53:17;24.60;47.60
12901;DHT22;6518;50.930;5.344;2022-07-03T14:55:44;24.60;47.40
12901;DHT22;6518;50.930;5.344;2022-07-03T14:58:16;24.60;47.20
12901;DHT22;6518;50.930;5.344;2022-07-03T15:00:47;24.60;47.20
12901;DHT22;6518;50.930;5.344;2022-07-03T15:03:25;24.70;47.20
12901;DHT22;6518;50.930;5.344;2022-07-03T15:05:55;24.80;47.10
12901;DHT22;6518;50.930;5.344;2022-07-03T15:08:46;24.80;47.00
12901;DHT22;6518;50.930;5.344;2022-07-03T15:11:21;24.70;46.80
12901;DHT22;6518;50.930;5.344;2022-07-03T15:14:06;24.70;47.00
12901;DHT22;6518;50.930;5.344;2022-07-03T15:16:34;24.60;46.90
12901;DHT22;6518;50.930;5.344;2022-07-03T15:19:03;24.60;46.90
12901;DHT22;6518;50.930;5.344;2022-07-03T15:21:32;24.60;46.70
12901;DHT22;6518;50.930;5.344;2022-07-03T15:24:00;24.40;46.70
12901;DHT22;6518;50.930;5.344;2022-07-03T15:26:29;24.30;47.00
12901;DHT22;6518;50.930;5.344;2022-07-03T15:28:59;24.30;47.50
12901;DHT22;6518;50.930;5.344;2022-07-03T15:31:27;24.50;47.40
12901;DHT22;6518;50.930;5.344;2022-07-03T15:33:55;24.50;47.00
12901;DHT22;6518;50.930;5.344;2022-07-03T15:36:26;24.40;47.20
12901;DHT22;6518;50.930;5.344;2022-07-03T15:39:02;24.40;47.40
12901;DHT22;6518;50.930;5.344;2022-07-03T15:41:38;24.40;46.90
12901;DHT22;6518;50.930;5.344;2022-07-03T15:44:17;24.40;46.90
12901;DHT22;6518;50.930;5.344;2022-07-03T15:46:54;24.40;46.80
12901;DHT22;6518;50.930;5.344;2022-07-03T15:49:34;24.40;46.80
12901;DHT22;6518;50.930;5.344;2022-07-03T15:52:16;24.40;47.10
12901;DHT22;6518;50.930;5.344;2022-07-03T15:55:03;24.40;47.20
12901;DHT22;6518;50.930;5.344;2022-07-03T15:57:40;24.30;47.00
12901;DHT22;6518;50.930;5.344;2022-07-03T16:00:12;24.20;47.30
12901;DHT22;6518;50.930;5.344;2022-07-03T16:03:00;24.20;47.60
12901;DHT22;6518;50.930;5.344;2022-07-03T16:05:31;24.10;47.70
12901;DHT22;6518;50.930;5.344;2022-07-03T16:08:00;24.10;47.80
12901;DHT22;6518;50.930;5.344;2022-07-03T16:10:30;24.20;48.00
12901;DHT22;6518;50.930;5.344;2022-07-03T16:12:58;24.30;47.90